Decoded Metar for KSMO (SANTA MONICA in CA, USA) (IATA:SMO) | Meteo·Mobile Aviation Weather
aviador You're here:

KSMO Decoded Metar

SANTA MONICA in CA, USA
Report Time2019-04-20 09:51:00
UTC Time2019-04-20 10:29:56
Flight Rules mvfr MVFR
Wind160° at 03 kt
W.Decomp.*RWY 21: 1.3 kt HW 2.7 kt LCW
Visibility9999 m
Phenomena:N/A
Clouds:Overcast 011 Hf
Expected CloudBase > 1,200 ft AGL from Temp-Dew spread
Ceiling1,100 ft
Temp14°C (ISA -1)
Dew Point11°C (82% RH)
AAT13.2°C
QNH1014 hPa
Density Alt256 ft
Elevation187 ft
Report Wrong Elevation
Raw Report
KSMO 200951Z AUTO 16003KT 10SM OVC011 14/11 A2995 RMK AO2 SLP141
T01390106=

Extra information for KSMO:More info

Metar Taf Metar & Taf Last 4 Metars F.Rules Stats Wind Profile Meteogram Temp Stats Airport Information Weather charts Add Link Nearby VenuesMetar ALERT Operation Metar Decoded Social comments

AIRNAV info for KSMO